sensor_id;sensor_type;location;lat;lon;timestamp;P1;durP1;ratioP1;P2;durP2;ratioP2
52620;SDS011;38515;53.160;6.990;2023-03-01T00:01:29;67.82;;;64.55;;
52620;SDS011;38515;53.160;6.990;2023-03-01T00:03:56;57.13;;;54.25;;
52620;SDS011;38515;53.160;6.990;2023-03-01T00:06:23;57.28;;;54.80;;
52620;SDS011;38515;53.160;6.990;2023-03-01T00:08:49;67.47;;;64.15;;
52620;SDS011;38515;53.160;6.990;2023-03-01T00:13:44;54.88;;;52.40;;
52620;SDS011;38515;53.160;6.990;2023-03-01T00:16:13;51.22;;;48.63;;
52620;SDS011;38515;53.160;6.990;2023-03-01T00:18:41;52.35;;;49.60;;
52620;SDS011;38515;53.160;6.990;2023-03-01T00:21:07;48.80;;;46.28;;
52620;SDS011;38515;53.160;6.990;2023-03-01T00:23:33;54.72;;;51.25;;
52620;SDS011;38515;53.160;6.990;2023-03-01T00:26:01;56.78;;;53.72;;
52620;SDS011;38515;53.160;6.990;2023-03-01T00:28:27;58.83;;;55.92;;
52620;SDS011;38515;53.160;6.990;2023-03-01T00:30:53;76.53;;;71.13;;
52620;SDS011;38515;53.160;6.990;2023-03-01T00:33:19;73.00;;;69.35;;
52620;SDS011;38515;53.160;6.990;2023-03-01T00:35:45;73.78;;;69.82;;
52620;SDS011;38515;53.160;6.990;2023-03-01T00:38:11;56.55;;;52.83;;
52620;SDS011;38515;53.160;6.990;2023-03-01T00:40:37;59.85;;;56.90;;
52620;SDS011;38515;53.160;6.990;2023-03-01T00:43:03;53.58;;;50.92;;
52620;SDS011;38515;53.160;6.990;2023-03-01T00:45:29;59.90;;;54.67;;
52620;SDS011;38515;53.160;6.990;2023-03-01T00:47:59;63.22;;;60.15;;
52620;SDS011;38515;53.160;6.990;2023-03-01T00:50:27;59.15;;;56.25;;
52620;SDS011;38515;53.160;6.990;2023-03-01T00:52:54;57.05;;;54.20;;
52620;SDS011;38515;53.160;6.990;2023-03-01T00:55:20;61.72;;;58.72;;
52620;SDS011;38515;53.160;6.990;2023-03-01T00:57:46;57.00;;;53.83;;
52620;SDS011;38515;53.160;6.990;2023-03-01T01:00:12;53.53;;;50.40;;
52620;SDS011;38515;53.160;6.990;2023-03-01T01:02:38;45.25;;;42.80;;
52620;SDS011;38515;53.160;6.990;2023-03-01T01:05:05;49.42;;;46.65;;
52620;SDS011;38515;53.160;6.990;2023-03-01T01:07:31;48.80;;;46.08;;
52620;SDS011;38515;53.160;6.990;2023-03-01T01:09:57;45.92;;;43.50;;
52620;SDS011;38515;53.160;6.990;2023-03-01T01:12:23;51.83;;;49.03;;
52620;SDS011;38515;53.160;6.990;2023-03-01T01:14:49;50.40;;;46.78;;
52620;SDS011;38515;53.160;6.990;2023-03-01T01:17:15;53.22;;;50.25;;
52620;SDS011;38515;53.160;6.990;2023-03-01T01:19:41;50.40;;;47.53;;
52620;SDS011;38515;53.160;6.990;2023-03-01T01:22:07;55.08;;;52.75;;
52620;SDS011;38515;53.160;6.990;2023-03-01T01:24:33;57.13;;;54.40;;
52620;SDS011;38515;53.160;6.990;2023-03-01T01:27:00;54.55;;;51.75;;
52620;SDS011;38515;53.160;6.990;2023-03-01T01:29:25;58.05;;;55.38;;
52620;SDS011;38515;53.160;6.990;2023-03-01T01:31:51;60.80;;;56.45;;
52620;SDS011;38515;53.160;6.990;2023-03-01T01:34:19;57.90;;;54.65;;
52620;SDS011;38515;53.160;6.990;2023-03-01T01:36:52;59.95;;;56.95;;
52620;SDS011;38515;53.160;6.990;2023-03-01T01:39:20;57.00;;;53.38;;
52620;SDS011;38515;53.160;6.990;2023-03-01T01:41:46;60.72;;;57.85;;
52620;SDS011;38515;53.160;6.990;2023-03-01T01:44:14;55.47;;;52.88;;
52620;SDS011;38515;53.160;6.990;2023-03-01T01:49:41;58.67;;;54.47;;
52620;SDS011;38515;53.160;6.990;2023-03-01T01:52:22;61.20;;;57.97;;
52620;SDS011;38515;53.160;6.990;2023-03-01T01:54:56;60.88;;;58.20;;
52620;SDS011;38515;53.160;6.990;2023-03-01T01:57:34;67.38;;;64.32;;
52620;SDS011;38515;53.160;6.990;2023-03-01T02:00:11;52.15;;;49.95;;
52620;SDS011;38515;53.160;6.990;2023-03-01T02:02:40;61.20;;;58.00;;
52620;SDS011;38515;53.160;6.990;2023-03-01T02:08:12;67.00;;;64.03;;
52620;SDS011;38515;53.160;6.990;2023-03-01T02:10:40;54.30;;;51.15;;
52620;SDS011;38515;53.160;6.990;2023-03-01T02:13:06;66.65;;;63.38;;
52620;SDS011;38515;53.160;6.990;2023-03-01T02:15:34;63.83;;;60.80;;
52620;SDS011;38515;53.160;6.990;2023-03-01T02:18:02;63.25;;;60.25;;
52620;SDS011;38515;53.160;6.990;2023-03-01T02:20:39;65.55;;;62.33;;
52620;SDS011;38515;53.160;6.990;2023-03-01T02:23:23;61.10;;;57.92;;
52620;SDS011;38515;53.160;6.990;2023-03-01T02:28:37;66.30;;;63.25;;
52620;SDS011;38515;53.160;6.990;2023-03-01T02:31:05;66.47;;;63.42;;
52620;SDS011;38515;53.160;6.990;2023-03-01T02:33:52;69.03;;;65.25;;
52620;SDS011;38515;53.160;6.990;2023-03-01T02:36:23;67.97;;;64.15;;
52620;SDS011;38515;53.160;6.990;2023-03-01T02:38:52;63.35;;;59.85;;
52620;SDS011;38515;53.160;6.990;2023-03-01T02:41:22;50.95;;;47.88;;
52620;SDS011;38515;53.160;6.990;2023-03-01T02:43:53;51.28;;;48.83;;
52620;SDS011;38515;53.160;6.990;2023-03-01T02:46:21;58.25;;;55.53;;
52620;SDS011;38515;53.160;6.990;2023-03-01T02:48:50;60.83;;;57.88;;
52620;SDS011;38515;53.160;6.990;2023-03-01T02:54:40;55.13;;;52.35;;
52620;SDS011;38515;53.160;6.990;2023-03-01T02:56:38;48.00;;;45.15;;
52620;SDS011;38515;53.160;6.990;2023-03-01T02:59:05;51.28;;;48.67;;
52620;SDS011;38515;53.160;6.990;2023-03-01T03:01:32;47.65;;;45.65;;
52620;SDS011;38515;53.160;6.990;2023-03-01T03:04:04;53.15;;;50.58;;
52620;SDS011;38515;53.160;6.990;2023-03-01T03:06:32;49.75;;;47.17;;
52620;SDS011;38515;53.160;6.990;2023-03-01T03:08:58;53.17;;;50.35;;
52620;SDS011;38515;53.160;6.990;2023-03-01T03:11:25;48.45;;;45.75;;
52620;SDS011;38515;53.160;6.990;2023-03-01T03:13:51;49.42;;;46.42;;
52620;SDS011;38515;53.160;6.990;2023-03-01T03:16:17;39.47;;;37.60;;
52620;SDS011;38515;53.160;6.990;2023-03-01T03:18:44;53.42;;;50.25;;
52620;SDS011;38515;53.160;6.990;2023-03-01T03:21:10;43.20;;;40.45;;
52620;SDS011;38515;53.160;6.990;2023-03-01T03:23:37;63.40;;;60.13;;
52620;SDS011;38515;53.160;6.990;2023-03-01T03:26:04;48.53;;;46.38;;
52620;SDS011;38515;53.160;6.990;2023-03-01T03:28:31;44.80;;;41.80;;
52620;SDS011;38515;53.160;6.990;2023-03-01T03:30:57;46.78;;;44.17;;
52620;SDS011;38515;53.160;6.990;2023-03-01T03:33:29;45.05;;;42.75;;
52620;SDS011;38515;53.160;6.990;2023-03-01T03:35:55;55.15;;;52.28;;
52620;SDS011;38515;53.160;6.990;2023-03-01T03:38:21;48.45;;;45.63;;
52620;SDS011;38515;53.160;6.990;2023-03-01T03:40:48;47.88;;;45.53;;
52620;SDS011;38515;53.160;6.990;2023-03-01T03:43:22;46.35;;;43.95;;
52620;SDS011;38515;53.160;6.990;2023-03-01T03:45:49;49.53;;;47.22;;
52620;SDS011;38515;53.160;6.990;2023-03-01T03:48:16;43.80;;;41.78;;
52620;SDS011;38515;53.160;6.990;2023-03-01T03:50:46;42.50;;;40.20;;
52620;SDS011;38515;53.160;6.990;2023-03-01T03:53:14;46.15;;;43.55;;
52620;SDS011;38515;53.160;6.990;2023-03-01T03:55:40;45.42;;;43.30;;
52620;SDS011;38515;53.160;6.990;2023-03-01T03:58:07;48.13;;;45.08;;
52620;SDS011;38515;53.160;6.990;2023-03-01T04:00:39;47.65;;;45.10;;
52620;SDS011;38515;53.160;6.990;2023-03-01T04:03:07;50.08;;;47.53;;
52620;SDS011;38515;53.160;6.990;2023-03-01T04:05:33;52.50;;;49.55;;
52620;SDS011;38515;53.160;6.990;2023-03-01T04:08:00;48.65;;;46.13;;
52620;SDS011;38515;53.160;6.990;2023-03-01T04:10:31;49.15;;;46.47;;
52620;SDS011;38515;53.160;6.990;2023-03-01T04:13:02;51.92;;;49.47;;
52620;SDS011;38515;53.160;6.990;2023-03-01T04:15:30;49.80;;;47.10;;
52620;SDS011;38515;53.160;6.990;2023-03-01T04:17:57;54.60;;;51.85;;
52620;SDS011;38515;53.160;6.990;2023-03-01T04:20:25;52.03;;;48.63;;
52620;SDS011;38515;53.160;6.990;2023-03-01T04:25:23;47.47;;;44.42;;
52620;SDS011;38515;53.160;6.990;2023-03-01T04:27:50;55.63;;;52.20;;
52620;SDS011;38515;53.160;6.990;2023-03-01T04:30:16;52.65;;;49.97;;
52620;SDS011;38515;53.160;6.990;2023-03-01T04:32:42;44.08;;;41.47;;
52620;SDS011;38515;53.160;6.990;2023-03-01T04:35:08;45.90;;;43.08;;
52620;SDS011;38515;53.160;6.990;2023-03-01T04:37:34;42.10;;;39.90;;
52620;SDS011;38515;53.160;6.990;2023-03-01T04:40:02;45.90;;;41.95;;
52620;SDS011;38515;53.160;6.990;2023-03-01T04:42:41;37.92;;;35.97;;
52620;SDS011;38515;53.160;6.990;2023-03-01T04:45:07;43.80;;;41.20;;
52620;SDS011;38515;53.160;6.990;2023-03-01T04:47:41;48.20;;;45.60;;
52620;SDS011;38515;53.160;6.990;2023-03-01T04:50:10;41.67;;;39.47;;
52620;SDS011;38515;53.160;6.990;2023-03-01T04:52:36;47.35;;;44.50;;
52620;SDS011;38515;53.160;6.990;2023-03-01T04:55:03;42.55;;;40.15;;
52620;SDS011;38515;53.160;6.990;2023-03-01T04:57:29;50.80;;;47.45;;
52620;SDS011;38515;53.160;6.990;2023-03-01T04:59:55;47.17;;;44.55;;
52620;SDS011;38515;53.160;6.990;2023-03-01T05:02:21;43.00;;;40.17;;
52620;SDS011;38515;53.160;6.990;2023-03-01T05:04:47;41.95;;;39.70;;
52620;SDS011;38515;53.160;6.990;2023-03-01T05:07:13;44.65;;;42.45;;
52620;SDS011;38515;53.160;6.990;2023-03-01T05:09:45;44.25;;;41.88;;
52620;SDS011;38515;53.160;6.990;2023-03-01T05:12:11;42.15;;;39.67;;
52620;SDS011;38515;53.160;6.990;2023-03-01T05:14:38;43.85;;;41.72;;
52620;SDS011;38515;53.160;6.990;2023-03-01T05:17:04;44.13;;;41.20;;
52620;SDS011;38515;53.160;6.990;2023-03-01T05:19:31;47.85;;;44.45;;
52620;SDS011;38515;53.160;6.990;2023-03-01T05:21:58;46.97;;;44.03;;
52620;SDS011;38515;53.160;6.990;2023-03-01T05:24:28;42.90;;;40.60;;
52620;SDS011;38515;53.160;6.990;2023-03-01T05:26:56;51.22;;;48.67;;
52620;SDS011;38515;53.160;6.990;2023-03-01T05:29:23;47.78;;;45.15;;
52620;SDS011;38515;53.160;6.990;2023-03-01T05:31:54;51.40;;;49.03;;
52620;SDS011;38515;53.160;6.990;2023-03-01T05:34:27;45.85;;;43.40;;
52620;SDS011;38515;53.160;6.990;2023-03-01T05:36:58;47.90;;;45.53;;
52620;SDS011;38515;53.160;6.990;2023-03-01T05:39:25;48.30;;;44.83;;
52620;SDS011;38515;53.160;6.990;2023-03-01T05:41:56;48.30;;;45.58;;
52620;SDS011;38515;53.160;6.990;2023-03-01T05:44:24;50.55;;;47.33;;
52620;SDS011;38515;53.160;6.990;2023-03-01T05:46:50;47.30;;;44.55;;
52620;SDS011;38515;53.160;6.990;2023-03-01T05:49:17;47.05;;;44.05;;
52620;SDS011;38515;53.160;6.990;2023-03-01T05:51:43;47.80;;;44.10;;
52620;SDS011;38515;53.160;6.990;2023-03-01T05:54:13;51.30;;;48.00;;
52620;SDS011;38515;53.160;6.990;2023-03-01T05:56:39;48.03;;;45.33;;
52620;SDS011;38515;53.160;6.990;2023-03-01T05:59:05;48.47;;;46.15;;
52620;SDS011;38515;53.160;6.990;2023-03-01T06:01:32;48.80;;;46.30;;
52620;SDS011;38515;53.160;6.990;2023-03-01T06:03:59;43.47;;;41.08;;
52620;SDS011;38515;53.160;6.990;2023-03-01T06:06:25;43.97;;;41.15;;
52620;SDS011;38515;53.160;6.990;2023-03-01T06:08:52;44.10;;;41.40;;
52620;SDS011;38515;53.160;6.990;2023-03-01T06:11:18;47.33;;;44.50;;
52620;SDS011;38515;53.160;6.990;2023-03-01T06:13:45;42.28;;;39.63;;
52620;SDS011;38515;53.160;6.990;2023-03-01T06:16:12;48.15;;;45.83;;
52620;SDS011;38515;53.160;6.990;2023-03-01T06:18:39;47.47;;;44.97;;
52620;SDS011;38515;53.160;6.990;2023-03-01T06:21:05;47.55;;;44.72;;
52620;SDS011;38515;53.160;6.990;2023-03-01T06:23:33;44.63;;;42.00;;
52620;SDS011;38515;53.160;6.990;2023-03-01T06:26:00;52.33;;;49.40;;
52620;SDS011;38515;53.160;6.990;2023-03-01T06:28:30;44.28;;;41.58;;
52620;SDS011;38515;53.160;6.990;2023-03-01T06:30:55;44.22;;;41.88;;
52620;SDS011;38515;53.160;6.990;2023-03-01T06:33:21;46.20;;;44.00;;
52620;SDS011;38515;53.160;6.990;2023-03-01T06:35:49;44.33;;;42.00;;
52620;SDS011;38515;53.160;6.990;2023-03-01T06:38:16;47.47;;;45.13;;
52620;SDS011;38515;53.160;6.990;2023-03-01T06:40:44;46.03;;;43.05;;
52620;SDS011;38515;53.160;6.990;2023-03-01T06:43:16;48.30;;;45.22;;
52620;SDS011;38515;53.160;6.990;2023-03-01T06:45:42;49.05;;;46.58;;
52620;SDS011;38515;53.160;6.990;2023-03-01T06:48:08;45.92;;;43.47;;
52620;SDS011;38515;53.160;6.990;2023-03-01T06:50:35;51.35;;;48.05;;
52620;SDS011;38515;53.160;6.990;2023-03-01T06:53:01;55.33;;;51.97;;
52620;SDS011;38515;53.160;6.990;2023-03-01T06:55:27;48.03;;;45.20;;
52620;SDS011;38515;53.160;6.990;2023-03-01T06:57:54;48.60;;;46.20;;
52620;SDS011;38515;53.160;6.990;2023-03-01T07:00:24;49.53;;;46.75;;
52620;SDS011;38515;53.160;6.990;2023-03-01T07:02:51;56.63;;;53.42;;
52620;SDS011;38515;53.160;6.990;2023-03-01T07:05:17;59.50;;;55.95;;
52620;SDS011;38515;53.160;6.990;2023-03-01T07:07:43;57.42;;;53.50;;
52620;SDS011;38515;53.160;6.990;2023-03-01T07:10:09;58.38;;;55.83;;
52620;SDS011;38515;53.160;6.990;2023-03-01T07:12:35;61.90;;;58.83;;
52620;SDS011;38515;53.160;6.990;2023-03-01T07:15:02;62.13;;;59.20;;
52620;SDS011;38515;53.160;6.990;2023-03-01T07:17:29;53.42;;;50.40;;
52620;SDS011;38515;53.160;6.990;2023-03-01T07:19:55;45.83;;;41.15;;
52620;SDS011;38515;53.160;6.990;2023-03-01T07:22:21;45.75;;;42.47;;
52620;SDS011;38515;53.160;6.990;2023-03-01T07:24:47;45.42;;;42.28;;
52620;SDS011;38515;53.160;6.990;2023-03-01T07:27:13;40.95;;;38.72;;
52620;SDS011;38515;53.160;6.990;2023-03-01T07:29:39;48.10;;;45.42;;
52620;SDS011;38515;53.160;6.990;2023-03-01T07:32:05;49.15;;;46.28;;
52620;SDS011;38515;53.160;6.990;2023-03-01T07:34:31;51.97;;;49.22;;
52620;SDS011;38515;53.160;6.990;2023-03-01T07:36:57;53.58;;;50.40;;
52620;SDS011;38515;53.160;6.990;2023-03-01T07:39:23;59.08;;;55.60;;
52620;SDS011;38515;53.160;6.990;2023-03-01T07:41:49;66.00;;;61.67;;
52620;SDS011;38515;53.160;6.990;2023-03-01T07:44:15;64.00;;;60.65;;
52620;SDS011;38515;53.160;6.990;2023-03-01T07:46:42;63.92;;;60.40;;
52620;SDS011;38515;53.160;6.990;2023-03-01T07:49:09;64.70;;;60.90;;
52620;SDS011;38515;53.160;6.990;2023-03-01T07:51:35;58.03;;;54.40;;
52620;SDS011;38515;53.160;6.990;2023-03-01T07:54:01;89.03;;;67.90;;
52620;SDS011;38515;53.160;6.990;2023-03-01T07:56:27;173.55;;;69.85;;
52620;SDS011;38515;53.160;6.990;2023-03-01T07:58:53;118.80;;;59.33;;
52620;SDS011;38515;53.160;6.990;2023-03-01T08:01:20;88.40;;;52.88;;
52620;SDS011;38515;53.160;6.990;2023-03-01T08:03:47;174.68;;;59.35;;
52620;SDS011;38515;53.160;6.990;2023-03-01T08:06:14;70.53;;;66.30;;
52620;SDS011;38515;53.160;6.990;2023-03-01T08:08:41;70.30;;;65.65;;
52620;SDS011;38515;53.160;6.990;2023-03-01T08:11:08;67.78;;;62.00;;
52620;SDS011;38515;53.160;6.990;2023-03-01T08:13:36;82.18;;;71.38;;
52620;SDS011;38515;53.160;6.990;2023-03-01T08:16:12;81.68;;;74.85;;
52620;SDS011;38515;53.160;6.990;2023-03-01T08:18:40;135.93;;;73.63;;
52620;SDS011;38515;53.160;6.990;2023-03-01T08:21:08;107.85;;;76.93;;
52620;SDS011;38515;53.160;6.990;2023-03-01T08:23:36;115.50;;;99.88;;
52620;SDS011;38515;53.160;6.990;2023-03-01T08:26:36;127.90;;;117.03;;
52620;SDS011;38515;53.160;6.990;2023-03-01T08:28:55;117.47;;;106.00;;
52620;SDS011;38515;53.160;6.990;2023-03-01T08:31:22;137.38;;;127.95;;
52620;SDS011;38515;53.160;6.990;2023-03-01T08:33:52;103.57;;;94.13;;
52620;SDS011;38515;53.160;6.990;2023-03-01T08:36:23;172.38;;;128.52;;
52620;SDS011;38515;53.160;6.990;2023-03-01T08:38:51;139.57;;;125.22;;
52620;SDS011;38515;53.160;6.990;2023-03-01T08:41:17;206.55;;;119.95;;
52620;SDS011;38515;53.160;6.990;2023-03-01T08:43:43;198.38;;;109.55;;
52620;SDS011;38515;53.160;6.990;2023-03-01T08:46:10;143.82;;;110.93;;
52620;SDS011;38515;53.160;6.990;2023-03-01T08:48:37;125.65;;;115.97;;
52620;SDS011;38515;53.160;6.990;2023-03-01T08:51:10;145.10;;;112.65;;
52620;SDS011;38515;53.160;6.990;2023-03-01T08:53:38;100.80;;;93.38;;
52620;SDS011;38515;53.160;6.990;2023-03-01T08:56:05;113.80;;;102.65;;
52620;SDS011;38515;53.160;6.990;2023-03-01T08:58:31;109.85;;;102.00;;
52620;SDS011;38515;53.160;6.990;2023-03-01T09:00:57;123.90;;;112.80;;
52620;SDS011;38515;53.160;6.990;2023-03-01T09:03:23;96.00;;;85.57;;
52620;SDS011;38515;53.160;6.990;2023-03-01T09:05:50;96.82;;;90.00;;
52620;SDS011;38515;53.160;6.990;2023-03-01T09:08:17;99.97;;;90.55;;
52620;SDS011;38515;53.160;6.990;2023-03-01T09:10:43;108.55;;;100.85;;
52620;SDS011;38515;53.160;6.990;2023-03-01T09:13:09;105.38;;;77.43;;
52620;SDS011;38515;53.160;6.990;2023-03-01T09:15:38;116.32;;;106.18;;
52620;SDS011;38515;53.160;6.990;2023-03-01T09:18:05;113.63;;;106.72;;
52620;SDS011;38515;53.160;6.990;2023-03-01T09:20:31;111.93;;;103.65;;
52620;SDS011;38515;53.160;6.990;2023-03-01T09:22:58;109.35;;;98.93;;
52620;SDS011;38515;53.160;6.990;2023-03-01T09:25:24;120.75;;;113.47;;
52620;SDS011;38515;53.160;6.990;2023-03-01T09:27:51;154.50;;;146.43;;
52620;SDS011;38515;53.160;6.990;2023-03-01T09:30:17;140.40;;;132.57;;
52620;SDS011;38515;53.160;6.990;2023-03-01T09:32:44;47.22;;;42.17;;
52620;SDS011;38515;53.160;6.990;2023-03-01T09:35:10;45.30;;;40.28;;
52620;SDS011;38515;53.160;6.990;2023-03-01T09:37:36;38.70;;;34.72;;
52620;SDS011;38515;53.160;6.990;2023-03-01T09:40:05;38.53;;;32.13;;
52620;SDS011;38515;53.160;6.990;2023-03-01T09:42:32;34.90;;;30.33;;
52620;SDS011;38515;53.160;6.990;2023-03-01T09:45:05;32.90;;;28.05;;
52620;SDS011;38515;53.160;6.990;2023-03-01T09:47:51;30.05;;;26.88;;
52620;SDS011;38515;53.160;6.990;2023-03-01T09:50:18;31.95;;;27.77;;
52620;SDS011;38515;53.160;6.990;2023-03-01T10:06:35;36.63;;;31.10;;
52620;SDS011;38515;53.160;6.990;2023-03-01T10:09:05;32.47;;;29.00;;
52620;SDS011;38515;53.160;6.990;2023-03-01T10:11:38;31.83;;;28.48;;
52620;SDS011;38515;53.160;6.990;2023-03-01T10:14:22;34.13;;;30.38;;
52620;SDS011;38515;53.160;6.990;2023-03-01T10:19:43;32.35;;;28.90;;
52620;SDS011;38515;53.160;6.990;2023-03-01T10:22:16;34.15;;;29.52;;
52620;SDS011;38515;53.160;6.990;2023-03-01T10:24:53;32.72;;;29.23;;
52620;SDS011;38515;53.160;6.990;2023-03-01T10:27:24;33.65;;;29.05;;
52620;SDS011;38515;53.160;6.990;2023-03-01T10:32:37;31.45;;;28.05;;
52620;SDS011;38515;53.160;6.990;2023-03-01T10:35:21;32.80;;;28.33;;
52620;SDS011;38515;53.160;6.990;2023-03-01T10:40:29;30.45;;;26.35;;
52620;SDS011;38515;53.160;6.990;2023-03-01T10:42:57;34.88;;;26.13;;
52620;SDS011;38515;53.160;6.990;2023-03-01T10:48:36;29.05;;;25.13;;
52620;SDS011;38515;53.160;6.990;2023-03-01T10:51:04;30.10;;;26.90;;
52620;SDS011;38515;53.160;6.990;2023-03-01T10:53:33;32.13;;;28.23;;
52620;SDS011;38515;53.160;6.990;2023-03-01T10:56:04;33.15;;;26.92;;
52620;SDS011;38515;53.160;6.990;2023-03-01T10:58:36;36.08;;;29.08;;
52620;SDS011;38515;53.160;6.990;2023-03-01T11:01:05;33.90;;;29.38;;
52620;SDS011;38515;53.160;6.990;2023-03-01T11:03:41;34.88;;;28.92;;
52620;SDS011;38515;53.160;6.990;2023-03-01T11:08:37;30.63;;;26.00;;
52620;SDS011;38515;53.160;6.990;2023-03-01T11:11:25;29.20;;;25.05;;
52620;SDS011;38515;53.160;6.990;2023-03-01T11:14:00;27.25;;;24.45;;
52620;SDS011;38515;53.160;6.990;2023-03-01T11:16:27;29.73;;;25.65;;
52620;SDS011;38515;53.160;6.990;2023-03-01T11:21:34;29.35;;;26.15;;
52620;SDS011;38515;53.160;6.990;2023-03-01T11:24:06;32.03;;;26.95;;
52620;SDS011;38515;53.160;6.990;2023-03-01T11:26:38;30.27;;;27.08;;
52620;SDS011;38515;53.160;6.990;2023-03-01T11:31:53;29.40;;;26.20;;
52620;SDS011;38515;53.160;6.990;2023-03-01T11:34:37;28.80;;;25.90;;
52620;SDS011;38515;53.160;6.990;2023-03-01T11:37:21;29.92;;;25.50;;
52620;SDS011;38515;53.160;6.990;2023-03-01T11:45:47;28.52;;;24.17;;
52620;SDS011;38515;53.160;6.990;2023-03-01T11:51:09;29.35;;;26.23;;
52620;SDS011;38515;53.160;6.990;2023-03-01T11:53:50;25.98;;;23.27;;
52620;SDS011;38515;53.160;6.990;2023-03-01T11:56:43;27.83;;;25.05;;
52620;SDS011;38515;53.160;6.990;2023-03-01T11:59:29;27.77;;;24.88;;
52620;SDS011;38515;53.160;6.990;2023-03-01T12:10:23;27.20;;;24.40;;
52620;SDS011;38515;53.160;6.990;2023-03-01T12:21:20;26.20;;;23.40;;
52620;SDS011;38515;53.160;6.990;2023-03-01T12:31:48;25.13;;;22.52;;
52620;SDS011;38515;53.160;6.990;2023-03-01T12:36:55;31.15;;;22.17;;
52620;SDS011;38515;53.160;6.990;2023-03-01T12:50:54;27.55;;;24.55;;
52620;SDS011;38515;53.160;6.990;2023-03-01T12:53:39;25.70;;;23.17;;
52620;SDS011;38515;53.160;6.990;2023-03-01T12:56:15;27.00;;;24.13;;
52620;SDS011;38515;53.160;6.990;2023-03-01T13:01:35;28.10;;;25.23;;
52620;SDS011;38515;53.160;6.990;2023-03-01T13:04:06;28.13;;;23.20;;
52620;SDS011;38515;53.160;6.990;2023-03-01T13:07:02;30.35;;;24.75;;
52620;SDS011;38515;53.160;6.990;2023-03-01T13:15:24;28.70;;;24.17;;
52620;SDS011;38515;53.160;6.990;2023-03-01T13:28:40;28.65;;;25.65;;
52620;SDS011;38515;53.160;6.990;2023-03-01T13:33:44;32.28;;;26.90;;
52620;SDS011;38515;53.160;6.990;2023-03-01T13:39:26;29.95;;;26.75;;
52620;SDS011;38515;53.160;6.990;2023-03-01T13:41:57;28.83;;;25.90;;
52620;SDS011;38515;53.160;6.990;2023-03-01T13:49:41;26.98;;;23.98;;
52620;SDS011;38515;53.160;6.990;2023-03-01T13:52:43;25.70;;;22.70;;
52620;SDS011;38515;53.160;6.990;2023-03-01T13:57:47;51.23;;;46.70;;
52620;SDS011;38515;53.160;6.990;2023-03-01T14:00:29;27.42;;;22.25;;
52620;SDS011;38515;53.160;6.990;2023-03-01T14:03:18;26.98;;;24.10;;
52620;SDS011;38515;53.160;6.990;2023-03-01T14:05:58;27.95;;;24.20;;
52620;SDS011;38515;53.160;6.990;2023-03-01T14:08:27;29.88;;;24.63;;
52620;SDS011;38515;53.160;6.990;2023-03-01T14:17:03;55.92;;;51.38;;
52620;SDS011;38515;53.160;6.990;2023-03-01T14:19:42;26.58;;;23.83;;
52620;SDS011;38515;53.160;6.990;2023-03-01T14:27:25;28.10;;;24.13;;
52620;SDS011;38515;53.160;6.990;2023-03-01T14:29:54;28.17;;;23.75;;
52620;SDS011;38515;53.160;6.990;2023-03-01T14:32:25;26.30;;;23.50;;
52620;SDS011;38515;53.160;6.990;2023-03-01T14:34:53;27.73;;;24.90;;
52620;SDS011;38515;53.160;6.990;2023-03-01T14:37:22;26.55;;;23.67;;
52620;SDS011;38515;53.160;6.990;2023-03-01T14:39:50;26.52;;;23.38;;
52620;SDS011;38515;53.160;6.990;2023-03-01T14:42:18;28.52;;;25.30;;
52620;SDS011;38515;53.160;6.990;2023-03-01T14:44:47;26.35;;;23.48;;
52620;SDS011;38515;53.160;6.990;2023-03-01T14:47:20;26.52;;;23.30;;
52620;SDS011;38515;53.160;6.990;2023-03-01T14:50:42;27.30;;;24.02;;
52620;SDS011;38515;53.160;6.990;2023-03-01T14:52:54;28.02;;;24.67;;
52620;SDS011;38515;53.160;6.990;2023-03-01T14:55:30;31.75;;;24.92;;
52620;SDS011;38515;53.160;6.990;2023-03-01T14:58:02;25.85;;;23.15;;
52620;SDS011;38515;53.160;6.990;2023-03-01T15:00:29;26.25;;;23.55;;
52620;SDS011;38515;53.160;6.990;2023-03-01T15:03:00;24.95;;;22.35;;
52620;SDS011;38515;53.160;6.990;2023-03-01T15:05:34;26.15;;;23.45;;
52620;SDS011;38515;53.160;6.990;2023-03-01T15:08:02;28.52;;;22.35;;
52620;SDS011;38515;53.160;6.990;2023-03-01T15:10:31;27.38;;;24.00;;
52620;SDS011;38515;53.160;6.990;2023-03-01T15:15:49;28.45;;;25.48;;
52620;SDS011;38515;53.160;6.990;2023-03-01T15:18:28;26.30;;;23.63;;
52620;SDS011;38515;53.160;6.990;2023-03-01T15:20:55;26.95;;;24.08;;
52620;SDS011;38515;53.160;6.990;2023-03-01T15:23:30;43.25;;;39.75;;
52620;SDS011;38515;53.160;6.990;2023-03-01T15:25:56;27.13;;;24.38;;
52620;SDS011;38515;53.160;6.990;2023-03-01T15:28:24;39.75;;;37.00;;
52620;SDS011;38515;53.160;6.990;2023-03-01T15:31:03;25.10;;;22.42;;
52620;SDS011;38515;53.160;6.990;2023-03-01T15:33:40;26.13;;;23.40;;
52620;SDS011;38515;53.160;6.990;2023-03-01T15:38:57;24.80;;;22.38;;
52620;SDS011;38515;53.160;6.990;2023-03-01T15:41:32;26.33;;;22.23;;
52620;SDS011;38515;53.160;6.990;2023-03-01T15:44:23;24.50;;;21.90;;
52620;SDS011;38515;53.160;6.990;2023-03-01T15:46:56;24.35;;;21.75;;
52620;SDS011;38515;53.160;6.990;2023-03-01T15:49:37;25.88;;;23.27;;
52620;SDS011;38515;53.160;6.990;2023-03-01T15:52:06;24.50;;;22.00;;
52620;SDS011;38515;53.160;6.990;2023-03-01T15:54:54;24.77;;;22.30;;
52620;SDS011;38515;53.160;6.990;2023-03-01T15:57:21;26.90;;;23.15;;
52620;SDS011;38515;53.160;6.990;2023-03-01T15:59:47;23.80;;;21.35;;
52620;SDS011;38515;53.160;6.990;2023-03-01T16:02:14;52.28;;;48.72;;
52620;SDS011;38515;53.160;6.990;2023-03-01T16:04:40;40.63;;;37.88;;
52620;SDS011;38515;53.160;6.990;2023-03-01T16:07:06;22.60;;;20.35;;
52620;SDS011;38515;53.160;6.990;2023-03-01T16:09:35;22.60;;;20.30;;
52620;SDS011;38515;53.160;6.990;2023-03-01T16:12:01;24.42;;;21.85;;
52620;SDS011;38515;53.160;6.990;2023-03-01T16:14:27;23.02;;;20.73;;
52620;SDS011;38515;53.160;6.990;2023-03-01T16:16:53;25.52;;;22.35;;
52620;SDS011;38515;53.160;6.990;2023-03-01T16:19:19;23.20;;;20.83;;
52620;SDS011;38515;53.160;6.990;2023-03-01T16:21:45;55.35;;;51.83;;
52620;SDS011;38515;53.160;6.990;2023-03-01T16:24:13;46.65;;;43.88;;
52620;SDS011;38515;53.160;6.990;2023-03-01T16:26:39;22.67;;;20.35;;
52620;SDS011;38515;53.160;6.990;2023-03-01T16:29:08;47.40;;;44.53;;
52620;SDS011;38515;53.160;6.990;2023-03-01T16:31:34;42.85;;;39.70;;
52620;SDS011;38515;53.160;6.990;2023-03-01T16:34:00;24.38;;;20.55;;
52620;SDS011;38515;53.160;6.990;2023-03-01T16:36:26;22.83;;;20.63;;
52620;SDS011;38515;53.160;6.990;2023-03-01T16:38:57;24.90;;;22.45;;
52620;SDS011;38515;53.160;6.990;2023-03-01T16:41:26;57.22;;;53.80;;
52620;SDS011;38515;53.160;6.990;2023-03-01T16:43:52;51.60;;;47.88;;
52620;SDS011;38515;53.160;6.990;2023-03-01T16:46:22;60.10;;;56.75;;
52620;SDS011;38515;53.160;6.990;2023-03-01T16:48:50;27.80;;;24.45;;
52620;SDS011;38515;53.160;6.990;2023-03-01T16:51:17;62.95;;;59.25;;
52620;SDS011;38515;53.160;6.990;2023-03-01T16:53:43;60.05;;;56.25;;
52620;SDS011;38515;53.160;6.990;2023-03-01T16:56:10;26.58;;;23.85;;
52620;SDS011;38515;53.160;6.990;2023-03-01T16:58:37;26.05;;;23.40;;